sensor_id;sensor_type;location;lat;lon;timestamp;P1;durP1;ratioP1;P2;durP2;ratioP2
60076;SDS011;45950;45.208;20.374;2022-11-20T00:00:38;23.92;;;15.48;;
60076;SDS011;45950;45.208;20.374;2022-11-20T00:03:05;27.23;;;17.38;;
60076;SDS011;45950;45.208;20.374;2022-11-20T00:05:32;21.70;;;15.05;;
60076;SDS011;45950;45.208;20.374;2022-11-20T00:07:58;22.80;;;15.27;;
60076;SDS011;45950;45.208;20.374;2022-11-20T00:10:26;24.15;;;15.25;;
60076;SDS011;45950;45.208;20.374;2022-11-20T00:12:53;23.52;;;15.48;;
60076;SDS011;45950;45.208;20.374;2022-11-20T00:15:19;26.98;;;18.27;;
60076;SDS011;45950;45.208;20.374;2022-11-20T00:17:46;28.63;;;18.55;;
60076;SDS011;45950;45.208;20.374;2022-11-20T00:20:13;27.95;;;17.45;;
60076;SDS011;45950;45.208;20.374;2022-11-20T00:22:39;22.42;;;15.05;;
60076;SDS011;45950;45.208;20.374;2022-11-20T00:25:06;26.42;;;16.63;;
60076;SDS011;45950;45.208;20.374;2022-11-20T00:27:34;24.63;;;15.68;;
60076;SDS011;45950;45.208;20.374;2022-11-20T00:30:01;25.90;;;16.75;;
60076;SDS011;45950;45.208;20.374;2022-11-20T00:32:28;22.40;;;16.25;;
60076;SDS011;45950;45.208;20.374;2022-11-20T00:34:54;23.40;;;15.27;;
60076;SDS011;45950;45.208;20.374;2022-11-20T00:37:21;23.70;;;14.82;;
60076;SDS011;45950;45.208;20.374;2022-11-20T00:39:47;22.17;;;14.85;;
60076;SDS011;45950;45.208;20.374;2022-11-20T00:42:14;19.00;;;12.80;;
60076;SDS011;45950;45.208;20.374;2022-11-20T00:44:42;23.20;;;15.25;;
60076;SDS011;45950;45.208;20.374;2022-11-20T00:47:09;20.75;;;13.23;;
60076;SDS011;45950;45.208;20.374;2022-11-20T00:49:35;20.50;;;13.60;;
60076;SDS011;45950;45.208;20.374;2022-11-20T00:52:02;22.55;;;14.15;;
60076;SDS011;45950;45.208;20.374;2022-11-20T00:54:28;22.70;;;14.13;;
60076;SDS011;45950;45.208;20.374;2022-11-20T00:57:00;21.02;;;13.93;;
60076;SDS011;45950;45.208;20.374;2022-11-20T00:59:27;21.50;;;13.73;;
60076;SDS011;45950;45.208;20.374;2022-11-20T01:01:55;22.45;;;14.38;;
60076;SDS011;45950;45.208;20.374;2022-11-20T01:04:21;18.10;;;12.27;;
60076;SDS011;45950;45.208;20.374;2022-11-20T01:06:48;22.25;;;13.23;;
60076;SDS011;45950;45.208;20.374;2022-11-20T01:09:14;20.65;;;13.43;;
60076;SDS011;45950;45.208;20.374;2022-11-20T01:11:42;20.30;;;12.77;;
60076;SDS011;45950;45.208;20.374;2022-11-20T01:14:10;19.88;;;12.60;;
60076;SDS011;45950;45.208;20.374;2022-11-20T01:16:43;17.52;;;11.02;;
60076;SDS011;45950;45.208;20.374;2022-11-20T01:19:12;16.05;;;10.65;;
60076;SDS011;45950;45.208;20.374;2022-11-20T01:21:39;21.27;;;12.15;;
60076;SDS011;45950;45.208;20.374;2022-11-20T01:24:06;18.83;;;11.25;;
60076;SDS011;45950;45.208;20.374;2022-11-20T01:26:34;17.77;;;11.20;;
60076;SDS011;45950;45.208;20.374;2022-11-20T01:29:01;20.23;;;12.38;;
60076;SDS011;45950;45.208;20.374;2022-11-20T01:31:30;19.45;;;11.77;;
60076;SDS011;45950;45.208;20.374;2022-11-20T01:33:57;17.77;;;12.02;;
60076;SDS011;45950;45.208;20.374;2022-11-20T01:36:26;18.42;;;11.63;;
60076;SDS011;45950;45.208;20.374;2022-11-20T01:38:53;16.65;;;11.02;;
60076;SDS011;45950;45.208;20.374;2022-11-20T01:41:20;19.52;;;12.77;;
60076;SDS011;45950;45.208;20.374;2022-11-20T01:44:04;19.52;;;13.27;;
60076;SDS011;45950;45.208;20.374;2022-11-20T01:46:31;22.92;;;12.73;;
60076;SDS011;45950;45.208;20.374;2022-11-20T01:48:58;19.95;;;13.02;;
60076;SDS011;45950;45.208;20.374;2022-11-20T01:51:29;19.92;;;13.45;;
60076;SDS011;45950;45.208;20.374;2022-11-20T01:53:59;18.63;;;11.63;;
60076;SDS011;45950;45.208;20.374;2022-11-20T01:56:27;21.15;;;12.73;;
60076;SDS011;45950;45.208;20.374;2022-11-20T01:58:56;19.77;;;13.40;;
60076;SDS011;45950;45.208;20.374;2022-11-20T02:01:24;19.63;;;12.07;;
60076;SDS011;45950;45.208;20.374;2022-11-20T02:03:50;22.88;;;13.20;;
60076;SDS011;45950;45.208;20.374;2022-11-20T02:06:19;21.88;;;14.25;;
60076;SDS011;45950;45.208;20.374;2022-11-20T02:08:49;19.80;;;12.50;;
60076;SDS011;45950;45.208;20.374;2022-11-20T02:11:16;16.48;;;11.65;;
60076;SDS011;45950;45.208;20.374;2022-11-20T02:13:43;17.95;;;12.45;;
60076;SDS011;45950;45.208;20.374;2022-11-20T02:16:13;16.38;;;11.15;;
60076;SDS011;45950;45.208;20.374;2022-11-20T02:18:40;17.95;;;11.50;;
60076;SDS011;45950;45.208;20.374;2022-11-20T02:21:08;15.18;;;10.30;;
60076;SDS011;45950;45.208;20.374;2022-11-20T02:23:38;16.20;;;10.75;;
60076;SDS011;45950;45.208;20.374;2022-11-20T02:26:06;17.83;;;10.23;;
60076;SDS011;45950;45.208;20.374;2022-11-20T02:28:34;15.57;;;10.20;;
60076;SDS011;45950;45.208;20.374;2022-11-20T02:31:01;16.08;;;10.95;;
60076;SDS011;45950;45.208;20.374;2022-11-20T02:33:27;19.17;;;12.27;;
60076;SDS011;45950;45.208;20.374;2022-11-20T02:35:54;16.95;;;11.77;;
60076;SDS011;45950;45.208;20.374;2022-11-20T02:38:21;17.95;;;11.70;;
60076;SDS011;45950;45.208;20.374;2022-11-20T02:40:47;18.17;;;10.93;;
60076;SDS011;45950;45.208;20.374;2022-11-20T02:43:16;17.70;;;12.02;;
60076;SDS011;45950;45.208;20.374;2022-11-20T02:45:43;20.70;;;12.60;;
60076;SDS011;45950;45.208;20.374;2022-11-20T02:48:09;20.95;;;12.85;;
60076;SDS011;45950;45.208;20.374;2022-11-20T02:50:37;22.45;;;14.38;;
60076;SDS011;45950;45.208;20.374;2022-11-20T02:53:04;19.42;;;13.25;;
60076;SDS011;45950;45.208;20.374;2022-11-20T02:55:31;19.55;;;12.93;;
60076;SDS011;45950;45.208;20.374;2022-11-20T02:57:58;17.70;;;11.65;;
60076;SDS011;45950;45.208;20.374;2022-11-20T03:00:26;21.13;;;13.48;;
60076;SDS011;45950;45.208;20.374;2022-11-20T03:02:53;20.17;;;12.05;;
60076;SDS011;45950;45.208;20.374;2022-11-20T03:05:19;20.23;;;13.02;;
60076;SDS011;45950;45.208;20.374;2022-11-20T03:07:46;18.08;;;12.88;;
60076;SDS011;45950;45.208;20.374;2022-11-20T03:10:24;17.52;;;11.98;;
60076;SDS011;45950;45.208;20.374;2022-11-20T03:12:52;19.85;;;11.88;;
60076;SDS011;45950;45.208;20.374;2022-11-20T03:15:19;18.17;;;12.25;;
60076;SDS011;45950;45.208;20.374;2022-11-20T03:17:47;17.92;;;12.65;;
60076;SDS011;45950;45.208;20.374;2022-11-20T03:20:13;21.77;;;12.80;;
60076;SDS011;45950;45.208;20.374;2022-11-20T03:22:40;17.08;;;10.80;;
60076;SDS011;45950;45.208;20.374;2022-11-20T03:25:07;18.58;;;12.20;;
60076;SDS011;45950;45.208;20.374;2022-11-20T03:27:33;14.60;;;10.38;;
60076;SDS011;45950;45.208;20.374;2022-11-20T03:30:00;19.73;;;11.93;;
60076;SDS011;45950;45.208;20.374;2022-11-20T03:32:27;16.15;;;11.00;;
60076;SDS011;45950;45.208;20.374;2022-11-20T03:34:55;17.98;;;12.65;;
60076;SDS011;45950;45.208;20.374;2022-11-20T03:37:22;14.93;;;10.43;;
60076;SDS011;45950;45.208;20.374;2022-11-20T03:39:48;13.65;;;9.30;;
60076;SDS011;45950;45.208;20.374;2022-11-20T03:42:15;15.95;;;10.50;;
60076;SDS011;45950;45.208;20.374;2022-11-20T03:44:55;17.73;;;10.27;;
60076;SDS011;45950;45.208;20.374;2022-11-20T03:47:22;15.57;;;10.00;;
60076;SDS011;45950;45.208;20.374;2022-11-20T03:49:49;17.95;;;10.80;;
60076;SDS011;45950;45.208;20.374;2022-11-20T03:52:17;14.13;;;9.73;;
60076;SDS011;45950;45.208;20.374;2022-11-20T03:54:44;18.60;;;10.98;;
60076;SDS011;45950;45.208;20.374;2022-11-20T03:57:10;16.73;;;10.68;;
60076;SDS011;45950;45.208;20.374;2022-11-20T03:59:37;15.57;;;10.45;;
60076;SDS011;45950;45.208;20.374;2022-11-20T04:02:03;18.35;;;11.52;;
60076;SDS011;45950;45.208;20.374;2022-11-20T04:07:35;20.38;;;12.32;;
60076;SDS011;45950;45.208;20.374;2022-11-20T04:10:02;18.33;;;11.75;;
60076;SDS011;45950;45.208;20.374;2022-11-20T04:12:31;17.05;;;11.05;;
60076;SDS011;45950;45.208;20.374;2022-11-20T04:14:57;17.55;;;10.60;;
60076;SDS011;45950;45.208;20.374;2022-11-20T04:17:24;16.55;;;10.90;;
60076;SDS011;45950;45.208;20.374;2022-11-20T04:19:51;16.10;;;10.38;;
60076;SDS011;45950;45.208;20.374;2022-11-20T04:22:17;16.27;;;10.10;;
60076;SDS011;45950;45.208;20.374;2022-11-20T04:24:45;15.07;;;9.63;;
60076;SDS011;45950;45.208;20.374;2022-11-20T04:27:12;18.30;;;11.13;;
60076;SDS011;45950;45.208;20.374;2022-11-20T04:29:39;15.18;;;10.02;;
60076;SDS011;45950;45.208;20.374;2022-11-20T04:32:05;16.17;;;10.23;;
60076;SDS011;45950;45.208;20.374;2022-11-20T04:34:32;13.88;;;8.85;;
60076;SDS011;45950;45.208;20.374;2022-11-20T04:36:59;14.63;;;9.48;;
60076;SDS011;45950;45.208;20.374;2022-11-20T04:39:25;15.63;;;10.35;;
60076;SDS011;45950;45.208;20.374;2022-11-20T04:41:53;15.40;;;10.35;;
60076;SDS011;45950;45.208;20.374;2022-11-20T04:44:44;16.17;;;9.88;;
60076;SDS011;45950;45.208;20.374;2022-11-20T04:47:10;16.45;;;9.93;;
60076;SDS011;45950;45.208;20.374;2022-11-20T04:49:37;19.13;;;12.13;;
60076;SDS011;45950;45.208;20.374;2022-11-20T04:52:12;16.35;;;9.50;;
60076;SDS011;45950;45.208;20.374;2022-11-20T04:54:38;15.20;;;9.10;;
60076;SDS011;45950;45.208;20.374;2022-11-20T04:57:06;13.00;;;8.38;;
60076;SDS011;45950;45.208;20.374;2022-11-20T05:02:35;12.43;;;8.68;;
60076;SDS011;45950;45.208;20.374;2022-11-20T05:05:02;12.65;;;9.15;;
60076;SDS011;45950;45.208;20.374;2022-11-20T05:07:29;12.10;;;8.27;;
60076;SDS011;45950;45.208;20.374;2022-11-20T05:09:55;13.43;;;8.80;;
60076;SDS011;45950;45.208;20.374;2022-11-20T05:12:23;11.68;;;7.30;;
60076;SDS011;45950;45.208;20.374;2022-11-20T05:14:50;12.05;;;7.75;;
60076;SDS011;45950;45.208;20.374;2022-11-20T05:17:17;13.57;;;8.65;;
60076;SDS011;45950;45.208;20.374;2022-11-20T05:19:43;12.43;;;7.80;;
60076;SDS011;45950;45.208;20.374;2022-11-20T05:22:10;12.13;;;7.75;;
60076;SDS011;45950;45.208;20.374;2022-11-20T05:24:36;8.88;;;6.70;;
60076;SDS011;45950;45.208;20.374;2022-11-20T05:27:03;13.50;;;8.00;;
60076;SDS011;45950;45.208;20.374;2022-11-20T05:29:31;12.93;;;8.27;;
60076;SDS011;45950;45.208;20.374;2022-11-20T05:31:58;9.82;;;6.93;;
60076;SDS011;45950;45.208;20.374;2022-11-20T05:34:24;11.38;;;8.27;;
60076;SDS011;45950;45.208;20.374;2022-11-20T05:36:51;10.13;;;6.47;;
60076;SDS011;45950;45.208;20.374;2022-11-20T05:39:17;11.68;;;8.18;;
60076;SDS011;45950;45.208;20.374;2022-11-20T05:41:44;14.00;;;8.13;;
60076;SDS011;45950;45.208;20.374;2022-11-20T05:44:11;12.00;;;7.72;;
60076;SDS011;45950;45.208;20.374;2022-11-20T05:46:39;16.48;;;10.00;;
60076;SDS011;45950;45.208;20.374;2022-11-20T05:49:05;13.68;;;9.13;;
60076;SDS011;45950;45.208;20.374;2022-11-20T05:51:32;15.90;;;9.95;;
60076;SDS011;45950;45.208;20.374;2022-11-20T05:53:59;15.05;;;10.15;;
60076;SDS011;45950;45.208;20.374;2022-11-20T05:56:25;17.70;;;11.23;;
60076;SDS011;45950;45.208;20.374;2022-11-20T05:58:52;17.50;;;10.73;;
60076;SDS011;45950;45.208;20.374;2022-11-20T06:01:19;17.40;;;10.90;;
60076;SDS011;45950;45.208;20.374;2022-11-20T06:03:47;17.90;;;10.50;;
60076;SDS011;45950;45.208;20.374;2022-11-20T06:06:15;18.55;;;11.77;;
60076;SDS011;45950;45.208;20.374;2022-11-20T06:08:42;21.08;;;11.70;;
60076;SDS011;45950;45.208;20.374;2022-11-20T06:11:10;21.38;;;13.35;;
60076;SDS011;45950;45.208;20.374;2022-11-20T06:13:37;18.48;;;11.75;;
60076;SDS011;45950;45.208;20.374;2022-11-20T06:16:05;22.52;;;12.95;;
60076;SDS011;45950;45.208;20.374;2022-11-20T06:21:28;21.65;;;13.52;;
60076;SDS011;45950;45.208;20.374;2022-11-20T06:23:55;19.27;;;12.30;;
60076;SDS011;45950;45.208;20.374;2022-11-20T06:26:22;22.42;;;14.50;;
60076;SDS011;45950;45.208;20.374;2022-11-20T06:28:49;23.10;;;14.05;;
60076;SDS011;45950;45.208;20.374;2022-11-20T06:31:17;21.98;;;13.80;;
60076;SDS011;45950;45.208;20.374;2022-11-20T06:33:44;21.55;;;13.48;;
60076;SDS011;45950;45.208;20.374;2022-11-20T06:36:11;22.05;;;14.05;;
60076;SDS011;45950;45.208;20.374;2022-11-20T06:38:39;20.95;;;13.32;;
60076;SDS011;45950;45.208;20.374;2022-11-20T06:41:06;24.42;;;14.75;;
60076;SDS011;45950;45.208;20.374;2022-11-20T06:43:33;19.13;;;12.10;;
60076;SDS011;45950;45.208;20.374;2022-11-20T06:46:00;19.00;;;11.88;;
60076;SDS011;45950;45.208;20.374;2022-11-20T06:48:27;22.73;;;13.05;;
60076;SDS011;45950;45.208;20.374;2022-11-20T06:50:53;19.10;;;12.45;;
60076;SDS011;45950;45.208;20.374;2022-11-20T06:53:20;21.38;;;13.70;;
60076;SDS011;45950;45.208;20.374;2022-11-20T06:55:49;22.70;;;13.30;;
60076;SDS011;45950;45.208;20.374;2022-11-20T06:58:16;27.15;;;17.27;;
60076;SDS011;45950;45.208;20.374;2022-11-20T07:00:43;27.83;;;16.73;;
60076;SDS011;45950;45.208;20.374;2022-11-20T07:03:10;28.58;;;17.42;;
60076;SDS011;45950;45.208;20.374;2022-11-20T07:05:37;29.33;;;16.98;;
60076;SDS011;45950;45.208;20.374;2022-11-20T07:08:04;23.00;;;14.52;;
60076;SDS011;45950;45.208;20.374;2022-11-20T07:10:31;25.05;;;14.60;;
60076;SDS011;45950;45.208;20.374;2022-11-20T07:12:59;24.52;;;14.40;;
60076;SDS011;45950;45.208;20.374;2022-11-20T07:15:26;27.85;;;16.13;;
60076;SDS011;45950;45.208;20.374;2022-11-20T07:17:52;33.03;;;18.80;;
60076;SDS011;45950;45.208;20.374;2022-11-20T07:20:19;36.42;;;19.95;;
60076;SDS011;45950;45.208;20.374;2022-11-20T07:22:45;37.35;;;21.52;;
60076;SDS011;45950;45.208;20.374;2022-11-20T07:25:12;29.13;;;17.40;;
60076;SDS011;45950;45.208;20.374;2022-11-20T07:27:39;39.63;;;23.52;;
60076;SDS011;45950;45.208;20.374;2022-11-20T07:30:07;36.67;;;20.23;;
60076;SDS011;45950;45.208;20.374;2022-11-20T07:32:34;32.67;;;20.48;;
60076;SDS011;45950;45.208;20.374;2022-11-20T07:35:01;35.20;;;20.10;;
60076;SDS011;45950;45.208;20.374;2022-11-20T07:37:42;32.25;;;20.02;;
60076;SDS011;45950;45.208;20.374;2022-11-20T07:40:11;43.67;;;23.85;;
60076;SDS011;45950;45.208;20.374;2022-11-20T07:42:38;34.47;;;20.98;;
60076;SDS011;45950;45.208;20.374;2022-11-20T07:45:05;41.78;;;21.67;;
60076;SDS011;45950;45.208;20.374;2022-11-20T07:47:35;36.05;;;21.35;;
60076;SDS011;45950;45.208;20.374;2022-11-20T07:50:02;38.47;;;21.52;;
60076;SDS011;45950;45.208;20.374;2022-11-20T07:52:29;49.00;;;25.95;;
60076;SDS011;45950;45.208;20.374;2022-11-20T07:54:55;40.30;;;23.35;;
60076;SDS011;45950;45.208;20.374;2022-11-20T07:57:22;32.03;;;20.65;;
60076;SDS011;45950;45.208;20.374;2022-11-20T07:59:49;40.10;;;22.25;;
60076;SDS011;45950;45.208;20.374;2022-11-20T08:02:15;36.17;;;22.85;;
60076;SDS011;45950;45.208;20.374;2022-11-20T08:04:43;44.10;;;25.00;;
60076;SDS011;45950;45.208;20.374;2022-11-20T08:07:10;35.10;;;20.15;;
60076;SDS011;45950;45.208;20.374;2022-11-20T08:09:37;39.97;;;21.38;;
60076;SDS011;45950;45.208;20.374;2022-11-20T08:12:03;45.55;;;25.05;;
60076;SDS011;45950;45.208;20.374;2022-11-20T08:14:49;39.28;;;23.17;;
60076;SDS011;45950;45.208;20.374;2022-11-20T08:17:16;41.00;;;24.13;;
60076;SDS011;45950;45.208;20.374;2022-11-20T08:19:44;41.40;;;26.08;;
60076;SDS011;45950;45.208;20.374;2022-11-20T08:22:10;41.63;;;25.23;;
60076;SDS011;45950;45.208;20.374;2022-11-20T08:24:37;50.33;;;28.88;;
60076;SDS011;45950;45.208;20.374;2022-11-20T08:27:05;37.47;;;22.90;;
60076;SDS011;45950;45.208;20.374;2022-11-20T08:29:31;38.20;;;23.80;;
60076;SDS011;45950;45.208;20.374;2022-11-20T08:31:58;50.65;;;27.35;;
60076;SDS011;45950;45.208;20.374;2022-11-20T08:34:27;49.80;;;28.05;;
60076;SDS011;45950;45.208;20.374;2022-11-20T08:36:55;36.95;;;23.27;;
60076;SDS011;45950;45.208;20.374;2022-11-20T08:39:22;54.35;;;27.63;;
60076;SDS011;45950;45.208;20.374;2022-11-20T08:41:50;41.13;;;22.60;;
60076;SDS011;45950;45.208;20.374;2022-11-20T08:44:16;60.92;;;30.35;;
60076;SDS011;45950;45.208;20.374;2022-11-20T08:46:43;50.85;;;27.65;;
60076;SDS011;45950;45.208;20.374;2022-11-20T08:52:12;38.15;;;23.10;;
60076;SDS011;45950;45.208;20.374;2022-11-20T08:54:38;46.55;;;26.08;;
60076;SDS011;45950;45.208;20.374;2022-11-20T08:59:54;40.05;;;22.88;;
60076;SDS011;45950;45.208;20.374;2022-11-20T09:02:21;32.28;;;19.48;;
60076;SDS011;45950;45.208;20.374;2022-11-20T09:05:04;43.08;;;21.88;;
60076;SDS011;45950;45.208;20.374;2022-11-20T09:07:32;32.53;;;17.88;;
60076;SDS011;45950;45.208;20.374;2022-11-20T09:09:59;31.27;;;18.38;;
60076;SDS011;45950;45.208;20.374;2022-11-20T09:12:39;34.38;;;20.48;;
60076;SDS011;45950;45.208;20.374;2022-11-20T09:15:06;31.33;;;18.85;;
60076;SDS011;45950;45.208;20.374;2022-11-20T09:17:32;32.35;;;19.38;;
60076;SDS011;45950;45.208;20.374;2022-11-20T09:19:59;33.92;;;19.38;;
60076;SDS011;45950;45.208;20.374;2022-11-20T09:22:25;36.38;;;21.27;;
60076;SDS011;45950;45.208;20.374;2022-11-20T09:24:54;33.05;;;18.77;;
60076;SDS011;45950;45.208;20.374;2022-11-20T09:27:20;31.83;;;19.02;;
60076;SDS011;45950;45.208;20.374;2022-11-20T09:29:47;42.83;;;22.88;;
60076;SDS011;45950;45.208;20.374;2022-11-20T09:32:14;40.35;;;21.60;;
60076;SDS011;45950;45.208;20.374;2022-11-20T09:34:48;44.60;;;24.10;;
60076;SDS011;45950;45.208;20.374;2022-11-20T09:37:14;35.70;;;20.17;;
60076;SDS011;45950;45.208;20.374;2022-11-20T09:39:41;42.60;;;24.05;;
60076;SDS011;45950;45.208;20.374;2022-11-20T09:42:21;39.33;;;22.75;;
60076;SDS011;45950;45.208;20.374;2022-11-20T09:44:57;37.85;;;21.45;;
60076;SDS011;45950;45.208;20.374;2022-11-20T09:47:31;38.00;;;21.05;;
60076;SDS011;45950;45.208;20.374;2022-11-20T09:50:13;30.95;;;17.58;;
60076;SDS011;45950;45.208;20.374;2022-11-20T09:52:45;40.08;;;22.70;;
60076;SDS011;45950;45.208;20.374;2022-11-20T09:55:14;34.33;;;19.48;;
60076;SDS011;45950;45.208;20.374;2022-11-20T09:57:43;64.32;;;29.45;;
60076;SDS011;45950;45.208;20.374;2022-11-20T10:00:12;44.38;;;23.33;;
60076;SDS011;45950;45.208;20.374;2022-11-20T10:02:40;36.28;;;21.85;;
60076;SDS011;45950;45.208;20.374;2022-11-20T10:05:10;36.60;;;21.63;;
60076;SDS011;45950;45.208;20.374;2022-11-20T10:07:39;41.00;;;22.42;;
60076;SDS011;45950;45.208;20.374;2022-11-20T10:10:13;34.65;;;20.65;;
60076;SDS011;45950;45.208;20.374;2022-11-20T10:12:43;35.90;;;19.92;;
60076;SDS011;45950;45.208;20.374;2022-11-20T10:15:19;48.47;;;25.17;;
60076;SDS011;45950;45.208;20.374;2022-11-20T10:17:55;39.97;;;22.02;;
60076;SDS011;45950;45.208;20.374;2022-11-20T10:20:27;41.13;;;21.45;;
60076;SDS011;45950;45.208;20.374;2022-11-20T10:23:00;37.88;;;20.55;;
60076;SDS011;45950;45.208;20.374;2022-11-20T10:25:32;47.28;;;25.30;;
60076;SDS011;45950;45.208;20.374;2022-11-20T10:28:07;37.92;;;21.15;;
60076;SDS011;45950;45.208;20.374;2022-11-20T10:30:39;35.25;;;20.35;;
60076;SDS011;45950;45.208;20.374;2022-11-20T10:33:11;29.48;;;17.33;;
60076;SDS011;45950;45.208;20.374;2022-11-20T10:38:35;32.38;;;19.38;;
60076;SDS011;45950;45.208;20.374;2022-11-20T10:41:04;34.10;;;17.92;;
60076;SDS011;45950;45.208;20.374;2022-11-20T10:43:50;36.40;;;20.08;;
60076;SDS011;45950;45.208;20.374;2022-11-20T10:46:20;32.58;;;18.10;;
60076;SDS011;45950;45.208;20.374;2022-11-20T10:48:47;33.15;;;20.00;;
60076;SDS011;45950;45.208;20.374;2022-11-20T10:51:17;30.52;;;18.40;;
60076;SDS011;45950;45.208;20.374;2022-11-20T10:53:54;27.73;;;16.42;;
60076;SDS011;45950;45.208;20.374;2022-11-20T10:56:23;27.52;;;16.88;;
60076;SDS011;45950;45.208;20.374;2022-11-20T11:01:56;35.03;;;21.10;;
60076;SDS011;45950;45.208;20.374;2022-11-20T11:04:33;32.33;;;19.20;;
60076;SDS011;45950;45.208;20.374;2022-11-20T11:07:05;30.35;;;18.85;;
60076;SDS011;45950;45.208;20.374;2022-11-20T11:09:34;30.50;;;17.58;;
60076;SDS011;45950;45.208;20.374;2022-11-20T11:15:11;35.83;;;19.83;;
60076;SDS011;45950;45.208;20.374;2022-11-20T11:17:45;30.10;;;18.23;;
60076;SDS011;45950;45.208;20.374;2022-11-20T11:20:18;30.95;;;18.17;;
60076;SDS011;45950;45.208;20.374;2022-11-20T11:22:46;33.25;;;19.70;;
60076;SDS011;45950;45.208;20.374;2022-11-20T11:25:20;31.80;;;17.80;;
60076;SDS011;45950;45.208;20.374;2022-11-20T11:30:15;30.35;;;17.58;;
60076;SDS011;45950;45.208;20.374;2022-11-20T11:32:43;35.40;;;19.83;;
60076;SDS011;45950;45.208;20.374;2022-11-20T11:35:20;28.38;;;18.30;;
60076;SDS011;45950;45.208;20.374;2022-11-20T11:37:47;28.70;;;16.92;;
60076;SDS011;45950;45.208;20.374;2022-11-20T11:40:14;30.30;;;17.27;;
60076;SDS011;45950;45.208;20.374;2022-11-20T11:42:41;32.58;;;19.00;;
60076;SDS011;45950;45.208;20.374;2022-11-20T11:45:11;30.40;;;17.77;;
60076;SDS011;45950;45.208;20.374;2022-11-20T11:47:44;37.10;;;21.33;;
60076;SDS011;45950;45.208;20.374;2022-11-20T11:50:16;31.58;;;18.48;;
60076;SDS011;45950;45.208;20.374;2022-11-20T11:52:44;27.95;;;17.15;;
60076;SDS011;45950;45.208;20.374;2022-11-20T11:55:12;33.33;;;17.83;;
60076;SDS011;45950;45.208;20.374;2022-11-20T11:57:41;26.73;;;15.38;;
60076;SDS011;45950;45.208;20.374;2022-11-20T12:00:10;34.67;;;19.10;;
60076;SDS011;45950;45.208;20.374;2022-11-20T12:02:38;28.35;;;16.38;;
60076;SDS011;45950;45.208;20.374;2022-11-20T12:08:05;33.42;;;19.10;;
60076;SDS011;45950;45.208;20.374;2022-11-20T12:10:38;37.53;;;19.45;;
60076;SDS011;45950;45.208;20.374;2022-11-20T12:13:27;35.47;;;19.95;;
60076;SDS011;45950;45.208;20.374;2022-11-20T12:15:58;33.35;;;16.75;;
60076;SDS011;45950;45.208;20.374;2022-11-20T12:18:24;32.78;;;19.17;;
60076;SDS011;45950;45.208;20.374;2022-11-20T12:20:55;27.92;;;15.10;;
60076;SDS011;45950;45.208;20.374;2022-11-20T12:23:27;37.35;;;19.30;;
60076;SDS011;45950;45.208;20.374;2022-11-20T12:25:56;41.60;;;22.50;;
60076;SDS011;45950;45.208;20.374;2022-11-20T12:28:29;38.40;;;21.05;;
60076;SDS011;45950;45.208;20.374;2022-11-20T12:31:10;45.95;;;23.52;;
60076;SDS011;45950;45.208;20.374;2022-11-20T12:33:47;40.03;;;22.40;;
60076;SDS011;45950;45.208;20.374;2022-11-20T12:36:19;40.15;;;20.65;;
60076;SDS011;45950;45.208;20.374;2022-11-20T12:39:10;33.17;;;19.00;;
60076;SDS011;45950;45.208;20.374;2022-11-20T12:41:42;42.70;;;21.77;;
60076;SDS011;45950;45.208;20.374;2022-11-20T12:44:32;45.33;;;22.95;;
60076;SDS011;45950;45.208;20.374;2022-11-20T12:47:21;37.85;;;20.13;;
60076;SDS011;45950;45.208;20.374;2022-11-20T12:49:52;37.30;;;21.90;;
60076;SDS011;45950;45.208;20.374;2022-11-20T12:52:36;42.55;;;25.05;;
60076;SDS011;45950;45.208;20.374;2022-11-20T12:55:14;37.80;;;21.00;;
60076;SDS011;45950;45.208;20.374;2022-11-20T12:57:44;38.72;;;21.92;;
60076;SDS011;45950;45.208;20.374;2022-11-20T13:03:09;31.73;;;18.02;;
60076;SDS011;45950;45.208;20.374;2022-11-20T13:05:43;38.87;;;20.10;;
60076;SDS011;45950;45.208;20.374;2022-11-20T13:08:16;40.35;;;21.60;;
60076;SDS011;45950;45.208;20.374;2022-11-20T13:10:47;38.10;;;22.00;;
60076;SDS011;45950;45.208;20.374;2022-11-20T13:13:16;32.33;;;18.58;;
60076;SDS011;45950;45.208;20.374;2022-11-20T13:15:48;30.80;;;16.77;;
60076;SDS011;45950;45.208;20.374;2022-11-20T13:18:16;38.95;;;21.20;;
60076;SDS011;45950;45.208;20.374;2022-11-20T13:20:44;32.20;;;17.73;;
60076;SDS011;45950;45.208;20.374;2022-11-20T13:23:22;29.85;;;17.50;;
60076;SDS011;45950;45.208;20.374;2022-11-20T13:25:50;33.75;;;19.38;;
60076;SDS011;45950;45.208;20.374;2022-11-20T13:28:27;32.40;;;18.35;;
60076;SDS011;45950;45.208;20.374;2022-11-20T13:30:54;40.67;;;22.45;;
60076;SDS011;45950;45.208;20.374;2022-11-20T13:33:22;35.40;;;19.35;;
60076;SDS011;45950;45.208;20.374;2022-11-20T13:35:54;32.92;;;17.83;;
60076;SDS011;45950;45.208;20.374;2022-11-20T13:38:21;42.70;;;22.63;;
60076;SDS011;45950;45.208;20.374;2022-11-20T13:40:54;35.20;;;18.85;;
60076;SDS011;45950;45.208;20.374;2022-11-20T13:43:27;30.80;;;17.92;;
60076;SDS011;45950;45.208;20.374;2022-11-20T13:45:55;35.60;;;19.33;;
60076;SDS011;45950;45.208;20.374;2022-11-20T13:48:23;40.05;;;22.63;;
60076;SDS011;45950;45.208;20.374;2022-11-20T13:50:54;33.10;;;17.90;;
60076;SDS011;45950;45.208;20.374;2022-11-20T13:53:27;32.13;;;18.17;;
60076;SDS011;45950;45.208;20.374;2022-11-20T13:55:59;27.50;;;15.90;;
60076;SDS011;45950;45.208;20.374;2022-11-20T13:58:29;28.77;;;17.33;;
60076;SDS011;45950;45.208;20.374;2022-11-20T14:01:00;33.65;;;19.20;;
60076;SDS011;45950;45.208;20.374;2022-11-20T14:03:33;38.00;;;20.15;;
60076;SDS011;45950;45.208;20.374;2022-11-20T14:06:01;33.70;;;18.77;;
60076;SDS011;45950;45.208;20.374;2022-11-20T14:08:31;28.08;;;16.77;;
60076;SDS011;45950;45.208;20.374;2022-11-20T14:11:11;29.85;;;18.17;;
60076;SDS011;45950;45.208;20.374;2022-11-20T14:13:39;32.78;;;19.33;;
60076;SDS011;45950;45.208;20.374;2022-11-20T14:16:19;32.60;;;19.42;;
60076;SDS011;45950;45.208;20.374;2022-11-20T14:18:45;28.48;;;17.40;;
60076;SDS011;45950;45.208;20.374;2022-11-20T14:21:20;34.08;;;19.65;;
60076;SDS011;45950;45.208;20.374;2022-11-20T14:23:47;32.75;;;18.13;;
60076;SDS011;45950;45.208;20.374;2022-11-20T14:26:15;34.30;;;18.50;;
60076;SDS011;45950;45.208;20.374;2022-11-20T14:28:47;37.50;;;20.85;;
60076;SDS011;45950;45.208;20.374;2022-11-20T14:31:16;32.17;;;19.90;;
60076;SDS011;45950;45.208;20.374;2022-11-20T14:33:45;35.15;;;20.67;;
60076;SDS011;45950;45.208;20.374;2022-11-20T14:36:16;41.55;;;23.27;;
60076;SDS011;45950;45.208;20.374;2022-11-20T14:38:43;39.47;;;22.90;;
60076;SDS011;45950;45.208;20.374;2022-11-20T14:41:16;41.30;;;22.55;;
60076;SDS011;45950;45.208;20.374;2022-11-20T14:43:45;42.88;;;23.23;;
60076;SDS011;45950;45.208;20.374;2022-11-20T14:46:12;35.15;;;18.38;;
60076;SDS011;45950;45.208;20.374;2022-11-20T14:48:40;34.92;;;20.65;;
60076;SDS011;45950;45.208;20.374;2022-11-20T14:51:08;33.00;;;19.55;;
60076;SDS011;45950;45.208;20.374;2022-11-20T14:53:35;34.10;;;19.80;;